Página principal
METAR-TAF:

METAR-TAF

Aeroportos :

Soldotna, Alasca, Estados Unidos

latitude: 60-29N, longitude: 151-02W, altura: 33 m

Observação actual do tempo

O boletim foi feito há 44 minutos, às 08:56 UTC
Vento calmo
Temperatura 8°C
Humidade 100%
Pressão 1014 hPa
Visibilidade: 16.1 km
Céu limpo

METAR: PASX 210856Z AUTO 00000KT 10SM CLR 08/08 A2993 RMK AO2 SLP142 T00780078 401560056 50000

Hora: 01:40 (09:40 UTC)


TAF: em falta

Observações e previsões do tempo de mais de 4000 aeroportos (mensagens METAR e TAF).

As estações disponíveis são os pontos amarelos e vermelhos sobre o mapa.

Mova o rato sobre o mapa para ver o nome da estação.

Depois clique no ponto para visualizar as observações e previsões meteorológicas.

Para alterar o mapa : clique nos botões verdes com uma cruz preta para aumentar o zoom; no botão verde com uma pitada de zoom; ou nas setas verdes para mapas adjacentes.


METAR-TAF: